aviador You're here:

KISM Decoded Metar

KISSIMMEE/ORLAND in FL, USA
Report Time2017-10-20 15:56:00
UTC Time2017-10-20 16:14:48
Flight Rules vfr VFR
Wind080° at 12 Gusting to 18 kt
W.Decomp.*RWY 06: 10.9 kt HW 5.1 kt RCW
RWY 15: 5.1 kt HW 10.9 kt LCW
W.Rank080° ranks 5
Current wind is above 080° avg. (8.1)
Visibility9999 m
Phenomena:N/A
Clouds:Overcast 037 Hf
Expected CloudBase > 4,000 ft AGL from Temp-Dew spread
Ceiling3,700 ft
Temp29°C (ISA +14)
Dew Point19°C (55% RH)
Heat Index30.3°C
AAT27.9°C
QNH1021 hPa
Density Alt1,732 ft
Elevation82 ft
Report Wrong Elevation
Raw Report
METAR KISM 201556Z 08012G18KT 10SM OVC037 29/19 A3014 RMK AO2 SLP209
T02890194=

Extra information for KISM:More info

Metar Taf Metar & Taf Last 4 Metars F.Rules Stats Wind Profile Meteogram Temp Stats Airport Information Weather charts Add Link Nearby VenuesMetar ALERT Operation Metar Decoded Social comments

AIRNAV info for KISM